Time;durP1;ratioP1;P1;durP2;ratioP2;P2;SDS_P1;SDS_P2;PMS_P1;PMS_P2;Temp;Humidity;BMP_temperature;BMP_pressure;BME280_temperature;BME280_humidity;BME280_pressure;Samples;Min_cycle;Max_cycle;Signal;HPM_P1;HPM_P2
2024/02/19 00:00:54;;;;;;;2.47;1.83;;;10.90;72.60;;;6.43;100.00;96656.56;4946193;28;20031;-48
2024/02/19 00:03:21;;;;;;;3.03;1.92;;;10.80;72.60;;;6.45;100.00;96656.31;4949608;28;20026;-56
2024/02/19 00:05:47;;;;;;;3.92;2.25;;;10.80;72.70;;;6.44;100.00;96652.88;4943483;28;20030;-51
2024/02/19 00:08:13;;;;;;;6.43;2.30;;;10.80;72.70;;;6.45;100.00;96653.69;4951456;28;20116;-54
2024/02/19 00:10:39;;;;;;;4.82;2.22;;;10.80;72.80;;;6.46;100.00;96640.25;4949126;28;20035;-55
2024/02/19 00:13:05;;;;;;;3.33;2.10;;;10.80;72.80;;;6.41;100.00;96648.00;4940802;28;20018;-51
2024/02/19 00:15:31;;;;;;;2.50;1.80;;;10.80;73.60;;;6.44;100.00;96655.50;4951354;28;20023;-49
2024/02/19 00:17:58;;;;;;;2.45;2.05;;;10.80;72.90;;;6.47;100.00;96656.94;4946091;28;20121;-50
2024/02/19 00:20:24;;;;;;;3.13;2.10;;;10.90;72.90;;;6.48;100.00;96662.00;4950915;28;20122;-53
2024/02/19 00:22:51;;;;;;;4.80;2.42;;;10.90;72.90;;;6.49;100.00;96657.53;4949646;28;20073;-51
2024/02/19 00:25:18;;;;;;;4.43;2.25;;;10.90;72.90;;;6.48;100.00;96651.41;4944613;28;20054;-52
2024/02/19 00:27:43;;;;;;;3.42;2.03;;;10.90;72.90;;;6.49;100.00;96654.91;4952876;28;20056;-53
2024/02/19 00:30:11;;;;;;;3.75;2.10;;;10.90;72.90;;;6.48;100.00;96656.72;4940207;28;20026;-52
2024/02/19 00:32:37;;;;;;;5.28;2.47;;;10.90;73.60;;;6.51;100.00;96652.03;4952075;28;20034;-51
2024/02/19 00:35:04;;;;;;;4.47;2.03;;;10.90;72.80;;;6.52;100.00;96648.34;4950236;28;20015;-49
2024/02/19 00:37:30;;;;;;;5.03;2.08;;;10.90;72.90;;;6.52;100.00;96649.19;4949891;28;20117;-56
2024/02/19 00:39:57;;;;;;;2.67;2.25;;;10.90;72.80;;;6.49;100.00;96652.25;4945201;28;20031;-50
2024/02/19 00:42:24;;;;;;;2.47;2.00;;;10.90;72.80;;;6.44;100.00;96652.88;4945897;28;20570;-51
2024/02/19 00:44:51;;;;;;;3.15;2.10;;;10.90;72.90;;;6.44;100.00;96647.56;4948743;28;20367;-49
2024/02/19 00:47:17;;;;;;;2.90;2.13;;;10.90;72.80;;;6.46;100.00;96653.47;4945161;28;20031;-49
2024/02/19 00:49:43;;;;;;;3.22;1.92;;;10.90;72.90;;;6.47;100.00;96657.75;4950581;28;20478;-49
2024/02/19 00:52:09;;;;;;;3.00;2.17;;;10.90;72.90;;;6.49;100.00;96645.13;4943998;28;20093;-49
2024/02/19 00:54:35;;;;;;;2.92;2.00;;;10.90;72.90;;;6.53;100.00;96644.69;4946187;28;20105;-49
2024/02/19 00:57:01;;;;;;;3.33;2.28;;;10.90;72.90;;;6.52;100.00;96645.69;4942868;28;20433;-51
2024/02/19 00:59:26;;;;;;;3.38;2.10;;;10.90;72.80;;;6.52;100.00;96643.03;4944899;28;20027;-53
2024/02/19 01:01:52;;;;;;;3.85;2.00;;;11.00;72.90;;;6.49;100.00;96657.53;4948231;28;20098;-52
2024/02/19 01:04:18;;;;;;;2.35;1.88;;;11.00;72.90;;;6.46;100.00;96650.84;4942596;28;20027;-53
2024/02/19 01:06:44;;;;;;;3.20;2.20;;;10.90;72.90;;;6.46;100.00;96652.66;4946931;28;20030;-52
2024/02/19 01:09:10;;;;;;;2.30;2.10;;;10.90;72.90;;;6.51;100.00;96646.72;4950865;28;20097;-50
2024/02/19 01:11:36;;;;;;;2.50;2.30;;;10.90;72.90;;;6.50;100.00;96651.22;4947652;28;20517;-52
2024/02/19 01:14:02;;;;;;;3.00;2.50;;;10.90;72.90;;;6.48;100.00;96650.59;4946514;28;20030;-49
2024/02/19 01:16:29;;;;;;;4.00;2.10;;;10.90;73.00;;;6.48;100.00;96656.72;4950763;28;20030;-56
2024/02/19 01:18:55;;;;;;;3.03;2.28;;;10.90;73.00;;;6.49;100.00;96654.91;4949262;28;20122;-56
2024/02/19 01:21:20;;;;;;;3.33;2.17;;;10.90;73.00;;;6.46;100.00;96657.97;4950387;28;20481;-51
2024/02/19 01:23:46;;;;;;;3.58;2.22;;;11.00;73.10;;;6.48;100.00;96653.25;4947020;28;20074;-51
2024/02/19 01:26:20;;;;;;;4.35;1.90;;;10.90;73.10;;;6.51;100.00;96655.47;4943160;28;20070;-53
2024/02/19 01:28:47;;;;;;;3.13;2.17;;;10.90;73.30;;;6.57;100.00;96654.63;4950037;28;20027;-53
2024/02/19 01:31:14;;;;;;;2.58;2.13;;;10.90;73.20;;;6.56;100.00;96645.06;4948286;28;20165;-49
2024/02/19 01:33:40;;;;;;;3.00;2.17;;;11.00;73.30;;;6.57;100.00;96651.97;4949946;28;20080;-49
2024/02/19 01:36:07;;;;;;;4.18;2.40;;;11.00;73.30;;;6.53;100.00;96650.78;4946484;28;20058;-50
2024/02/19 01:38:33;;;;;;;5.00;1.88;;;11.00;73.30;;;6.55;100.00;96643.47;4944331;28;20051;-51
2024/02/19 01:40:58;;;;;;;2.65;1.90;;;11.00;73.40;;;6.56;100.00;96654.84;4951902;28;20426;-53
2024/02/19 01:43:25;;;;;;;3.85;2.10;;;11.00;73.30;;;6.61;100.00;96649.72;4955543;28;20021;-54
2024/02/19 01:45:50;;;;;;;2.70;2.22;;;11.00;73.30;;;6.54;100.00;96657.69;4951835;28;20030;-50
2024/02/19 01:48:17;;;;;;;3.53;2.03;;;11.00;73.30;;;6.53;100.00;96652.63;4951452;28;20039;-51
2024/02/19 01:50:46;;;;;;;3.58;2.35;;;11.00;73.40;;;6.55;100.00;96647.91;4951781;28;20035;-52
2024/02/19 01:53:14;;;;;;;2.50;1.90;;;11.00;73.40;;;6.54;100.00;96646.31;4950623;28;20014;-56
2024/02/19 01:55:42;;;;;;;2.00;1.80;;;11.00;73.40;;;6.59;100.00;96642.00;4950353;28;20486;-51
2024/02/19 01:58:11;;;;;;;2.10;1.90;;;11.00;73.40;;;6.60;100.00;96645.44;4953249;28;20113;-55
2024/02/19 02:00:40;;;;;;;3.70;2.05;;;11.10;73.60;;;6.58;100.00;96642.19;4941410;28;20497;-56
2024/02/19 02:03:11;;;;;;;2.97;2.30;;;11.10;73.60;;;6.59;100.00;96644.66;4960027;28;20370;-54
2024/02/19 02:05:37;;;;;;;3.08;1.80;;;11.10;73.60;;;6.63;100.00;96648.47;4952913;28;20038;-54
2024/02/19 02:08:05;;;;;;;2.40;1.70;;;11.10;73.60;;;6.65;100.00;96651.75;4946758;28;20027;-50
2024/02/19 02:10:31;;;;;;;3.20;2.10;;;11.10;73.60;;;6.69;100.00;96649.47;4945852;28;20042;-50
2024/02/19 02:12:57;;;;;;;2.38;1.90;;;11.10;73.60;;;6.67;100.00;96660.25;4945584;28;20026;-49
2024/02/19 02:15:23;;;;;;;2.78;2.05;;;11.10;73.50;;;6.69;100.00;96646.81;4947291;28;20026;-50
2024/02/19 02:17:49;;;;;;;2.90;1.83;;;11.10;73.50;;;6.75;100.00;96647.81;4944835;28;20206;-49
2024/02/19 02:20:15;;;;;;;2.70;1.88;;;11.20;73.50;;;6.78;100.00;96647.38;4944862;28;20625;-49
2024/02/19 02:22:43;;;;;;;2.85;1.95;;;11.20;73.50;;;6.75;100.00;96640.69;4951464;28;20118;-50
2024/02/19 02:25:09;;;;;;;4.05;1.98;;;11.20;73.50;;;6.74;100.00;96649.66;4950382;28;20027;-50
2024/02/19 02:27:35;;;;;;;2.67;2.10;;;11.20;73.40;;;6.76;100.00;96639.63;4948954;28;20026;-50
2024/02/19 02:30:03;;;;;;;2.70;1.80;;;11.20;73.30;;;6.76;100.00;96634.34;4943951;28;20026;-51
2024/02/19 02:32:29;;;;;;;3.00;1.98;;;11.20;73.30;;;6.77;100.00;96637.78;4946027;28;20038;-52
2024/02/19 02:34:55;;;;;;;4.22;2.20;;;11.20;73.30;;;6.77;100.00;96636.00;4948018;28;20014;-51
2024/02/19 02:37:21;;;;;;;2.95;1.80;;;11.20;73.30;;;6.78;100.00;96639.44;4942201;28;20031;-53
2024/02/19 02:39:47;;;;;;;2.88;2.10;;;11.20;73.30;;;6.78;100.00;96636.78;4948517;28;20034;-49
2024/02/19 02:42:13;;;;;;;2.90;2.03;;;11.20;73.30;;;6.76;100.00;96644.13;4947444;28;20047;-50
2024/02/19 02:44:39;;;;;;;4.35;2.00;;;11.20;73.30;;;6.79;100.00;96641.84;4947785;28;20452;-49
2024/02/19 02:47:04;;;;;;;3.15;1.88;;;11.30;73.30;;;6.81;100.00;96642.47;4941248;28;20034;-51
2024/02/19 02:49:30;;;;;;;5.32;1.98;;;11.30;73.30;;;6.83;100.00;96636.94;4939594;28;20520;-52
2024/02/19 02:51:56;;;;;;;4.38;1.90;;;11.30;74.10;;;6.82;100.00;96635.31;4939130;28;20030;-49
2024/02/19 02:54:22;;;;;;;3.72;1.83;;;11.30;73.30;;;6.83;100.00;96634.28;4942440;28;20437;-52
2024/02/19 02:56:48;;;;;;;3.60;1.80;;;11.30;73.30;;;6.78;100.00;96634.16;4942435;28;20559;-51
2024/02/19 02:59:14;;;;;;;3.80;2.25;;;11.30;73.30;;;6.78;100.00;96631.50;4943394;28;20022;-52
2024/02/19 03:01:39;;;;;;;1.85;1.65;;;11.30;73.20;;;6.79;100.00;96623.31;4944923;28;20031;-49
2024/02/19 03:04:06;;;;;;;2.33;2.00;;;11.30;73.30;;;6.81;100.00;96629.22;4947777;28;20022;-49
2024/02/19 03:06:32;;;;;;;2.25;2.00;;;11.30;73.30;;;6.83;100.00;96627.19;4945774;28;20030;-49
2024/02/19 03:08:57;;;;;;;2.63;2.20;;;11.30;73.30;;;6.84;100.00;96620.84;4949442;28;20034;-49
2024/02/19 03:11:23;;;;;;;2.33;1.92;;;11.30;73.30;;;6.81;100.00;96618.63;4949365;28;20037;-49
2024/02/19 03:13:49;;;;;;;2.95;2.05;;;11.30;73.30;;;6.81;100.00;96612.53;4944273;28;20026;-49
2024/02/19 03:16:16;;;;;;;2.97;2.20;;;11.30;73.20;;;6.82;100.00;96611.50;4950817;28;20031;-52
2024/02/19 03:18:43;;;;;;;3.72;2.13;;;11.30;73.20;;;6.83;100.00;96623.69;4942294;28;20041;-49
2024/02/19 03:21:15;;;;;;;3.50;2.30;;;11.30;73.30;;;6.86;100.00;96623.25;4945673;28;20383;-49
2024/02/19 03:23:52;;;;;;;4.70;2.40;;;11.30;73.40;;;6.85;100.00;96611.06;4943008;28;20046;-50
2024/02/19 03:26:25;;;;;;;6.18;2.33;;;11.30;73.40;;;6.87;100.00;96616.97;4940567;28;20489;-49
2024/02/19 03:28:52;;;;;;;4.47;2.30;;;11.40;73.50;;;6.89;100.00;96612.25;4947464;28;20034;-55
2024/02/19 03:31:19;;;;;;;3.83;2.30;;;11.30;73.40;;;6.85;100.00;96614.50;4939298;28;20027;-49
2024/02/19 03:33:46;;;;;;;2.45;2.20;;;11.30;73.40;;;6.87;100.00;96617.78;4946198;28;20077;-51
2024/02/19 03:36:12;;;;;;;4.63;2.13;;;11.30;73.50;;;6.91;100.00;96615.50;4945893;28;20109;-52
2024/02/19 03:38:38;;;;;;;5.07;2.60;;;11.30;73.50;;;6.91;100.00;96605.72;4940212;28;20033;-49
2024/02/19 03:41:06;;;;;;;4.00;2.25;;;11.40;73.60;;;6.88;100.00;96610.63;4944097;28;20078;-50
2024/02/19 03:43:32;;;;;;;3.33;2.40;;;11.40;73.60;;;6.84;100.00;96596.22;4950199;28;20054;-49
2024/02/19 03:45:58;;;;;;;2.97;2.20;;;11.40;73.50;;;6.83;100.00;96598.03;4945413;28;20038;-49
2024/02/19 03:48:24;;;;;;;2.70;2.00;;;11.30;73.50;;;6.86;100.00;96604.72;4945761;28;21117;-51
2024/02/19 03:50:50;;;;;;;2.58;2.10;;;11.40;73.50;;;6.83;100.00;96610.44;4943223;28;20054;-53
2024/02/19 03:53:15;;;;;;;2.55;2.05;;;11.40;73.60;;;6.83;100.00;96603.34;4945366;28;20027;-50
2024/02/19 03:55:41;;;;;;;5.25;2.20;;;11.30;73.60;;;6.87;100.00;96609.03;4943623;28;20041;-52
2024/02/19 03:58:08;;;;;;;3.00;1.95;;;11.30;73.60;;;6.86;100.00;96610.84;4944212;28;20027;-50
2024/02/19 04:00:33;;;;;;;2.00;1.80;;;11.40;73.70;;;6.88;100.00;96610.63;4941838;28;20030;-50
2024/02/19 04:02:59;;;;;;;2.40;1.88;;;11.40;73.70;;;6.90;100.00;96611.22;4950154;28;20025;-52
2024/02/19 04:05:25;;;;;;;4.55;2.00;;;11.40;73.70;;;6.88;100.00;96606.13;4947932;28;20402;-50
2024/02/19 04:07:51;;;;;;;3.72;1.83;;;11.40;73.70;;;6.83;100.00;96607.81;4951602;28;20266;-50
2024/02/19 04:10:17;;;;;;;2.40;1.90;;;11.40;73.60;;;6.87;100.00;96609.03;4951507;28;20050;-54
2024/02/19 04:12:42;;;;;;;2.85;1.98;;;11.40;73.60;;;6.83;100.00;96608.66;4950957;28;20033;-49
2024/02/19 04:15:09;;;;;;;3.08;1.88;;;11.30;73.50;;;6.85;100.00;96616.34;4960003;28;20030;-52
2024/02/19 04:17:35;;;;;;;4.25;1.90;;;11.30;73.50;;;6.86;100.00;96612.66;4945671;28;20042;-51
2024/02/19 04:20:04;;;;;;;2.85;1.92;;;11.40;73.50;;;6.84;100.00;96617.41;4952062;28;20386;-52
2024/02/19 04:22:30;;;;;;;2.78;1.80;;;11.40;73.50;;;6.85;100.00;96613.72;4950872;28;20114;-55
2024/02/19 04:24:56;;;;;;;3.13;1.90;;;11.40;73.50;;;6.88;100.00;96619.38;4953416;28;20050;-53
2024/02/19 04:27:22;;;;;;;3.88;2.25;;;11.30;73.50;;;6.89;100.00;96618.38;4951831;28;20500;-49
2024/02/19 04:29:47;;;;;;;5.15;2.65;;;11.30;73.40;;;6.87;100.00;96623.06;4945955;28;20297;-49
2024/02/19 04:32:14;;;;;;;3.67;2.30;;;11.40;73.50;;;6.88;100.00;96619.38;4947611;28;20106;-52
2024/02/19 04:34:40;;;;;;;3.50;2.38;;;11.40;73.50;;;6.86;100.00;96616.16;4951862;28;20459;-52
2024/02/19 04:37:07;;;;;;;4.13;2.63;;;11.40;73.50;;;6.84;100.00;96620.84;4947266;28;20106;-50
2024/02/19 04:39:34;;;;;;;5.00;2.42;;;11.40;73.40;;;6.83;100.00;96611.28;4950782;28;20105;-49
2024/02/19 04:42:02;;;;;;;3.63;2.42;;;11.30;73.50;;;6.83;100.00;96616.59;4962571;28;20051;-50
2024/02/19 04:44:28;;;;;;;3.83;2.20;;;11.30;73.40;;;6.82;100.00;96614.13;4949576;28;20025;-50
2024/02/19 04:46:54;;;;;;;4.45;2.53;;;11.30;73.50;;;6.82;100.00;96619.44;4942733;28;20030;-52
2024/02/19 04:49:20;;;;;;;3.63;2.50;;;11.30;73.50;;;6.83;100.00;96615.75;4950607;28;20358;-50
2024/02/19 04:51:45;;;;;;;6.28;2.65;;;11.30;73.60;;;6.84;100.00;96617.41;4951243;28;20482;-49
2024/02/19 04:54:11;;;;;;;3.95;2.78;;;11.30;73.60;;;6.84;100.00;96620.84;4949114;28;20034;-52
2024/02/19 04:56:37;;;;;;;5.97;2.97;;;11.30;73.60;;;6.80;100.00;96621.47;4942484;28;20493;-50
2024/02/19 04:59:03;;;;;;;5.38;2.70;;;11.30;73.60;;;6.80;100.00;96624.13;4944793;28;20027;-52
2024/02/19 05:01:31;;;;;;;6.07;3.10;;;11.30;73.70;;;6.75;100.00;96623.97;4949264;28;20512;-50
2024/02/19 05:03:59;;;;;;;3.83;2.90;;;11.30;73.80;;;6.78;100.00;96621.72;4945786;28;20438;-49
2024/02/19 05:06:25;;;;;;;3.85;3.03;;;11.30;73.80;;;6.76;100.00;96615.81;4946189;28;20027;-52
2024/02/19 05:08:51;;;;;;;3.88;2.65;;;11.30;73.80;;;6.78;100.00;96623.56;4948127;28;20448;-51
2024/02/19 05:11:17;;;;;;;5.07;3.20;;;11.20;73.70;;;6.75;100.00;96616.03;4951060;28;20061;-53
2024/02/19 05:13:43;;;;;;;4.07;3.10;;;11.20;73.70;;;6.76;100.00;96607.88;4943579;28;20027;-52
2024/02/19 05:16:10;;;;;;;5.43;3.15;;;11.20;73.80;;;6.77;100.00;96608.66;4947979;28;20033;-49
2024/02/19 05:18:36;;;;;;;4.78;3.03;;;11.20;73.80;;;6.75;100.00;96611.53;4944689;28;20058;-49
2024/02/19 05:21:03;;;;;;;5.82;3.55;;;11.20;73.80;;;6.76;100.00;96610.50;4951388;28;20062;-50
2024/02/19 05:23:30;;;;;;;4.57;3.47;;;11.20;73.90;;;6.77;100.00;96608.66;4942735;28;20030;-51
2024/02/19 05:25:56;;;;;;;5.47;3.88;;;11.20;74.00;;;6.70;100.00;96611.38;4945227;28;20110;-51
2024/02/19 05:28:22;;;;;;;5.10;3.25;;;11.20;74.00;;;6.71;100.00;96611.16;4944944;28;20022;-49
2024/02/19 05:30:48;;;;;;;5.60;4.00;;;11.20;74.00;;;6.71;100.00;96605.06;4942352;28;20034;-49
2024/02/19 05:33:18;;;;;;;6.25;3.95;;;11.20;74.00;;;6.64;100.00;96610.41;4947309;28;20019;-49
2024/02/19 05:35:45;;;;;;;6.95;4.20;;;11.10;74.00;;;6.63;100.00;96605.31;4946202;28;20106;-50
2024/02/19 05:38:12;;;;;;;8.48;4.80;;;11.10;74.10;;;6.65;100.00;96609.38;4947631;28;20019;-49
2024/02/19 05:40:39;;;;;;;7.78;3.95;;;11.10;74.20;;;6.64;100.00;96599.81;4950768;28;21834;-50
2024/02/19 05:43:06;;;;;;;5.65;4.00;;;11.10;74.20;;;6.60;100.00;96603.09;4946707;23;20093;-56
2024/02/19 05:45:32;;;;;;;5.78;4.05;;;11.10;74.30;;;6.61;100.00;96607.34;4934106;28;20035;-53
2024/02/19 05:47:59;;;;;;;7.78;4.30;;;11.10;74.30;;;6.61;100.00;96610.00;4933722;28;20027;-57
2024/02/19 05:50:27;;;;;;;7.25;4.65;;;11.10;74.40;;;6.59;100.00;96610.22;4934379;29;20037;-57
2024/02/19 05:52:53;;;;;;;7.88;4.13;;;11.10;74.40;;;6.60;100.00;96613.69;4948167;28;20797;-56
2024/02/19 05:55:18;;;;;;;7.28;4.18;;;11.10;74.40;;;6.65;100.00;96619.97;4934691;29;20126;-52
2024/02/19 05:57:44;;;;;;;7.72;4.18;;;11.10;74.50;;;6.63;100.00;96614.06;4942912;28;20031;-53
2024/02/19 06:00:13;;;;;;;6.75;4.32;;;11.10;74.50;;;6.62;100.00;96615.09;4932693;29;20509;-52
2024/02/19 06:02:43;;;;;;;6.35;3.90;;;11.10;74.50;;;6.64;100.00;96623.66;4930445;29;20027;-53
2024/02/19 06:05:10;;;;;;;6.93;4.25;;;11.10;74.60;;;6.65;100.00;96624.47;4933538;29;20070;-51
2024/02/19 06:07:36;;;;;;;6.25;4.45;;;11.10;74.60;;;6.68;100.00;96622.19;4933904;28;20477;-53
2024/02/19 06:10:07;;;;;;;5.70;3.95;;;11.10;74.50;;;6.69;100.00;96621.16;4934631;28;20023;-57
2024/02/19 06:12:33;;;;;;;8.15;4.70;;;11.20;74.60;;;6.68;100.00;96629.31;4932569;29;21097;-55
2024/02/19 06:14:59;;;;;;;7.85;4.70;;;11.20;74.60;;;6.66;100.00;96624.22;4934543;29;20053;-54
2024/02/19 06:17:25;;;;;;;5.75;4.35;;;11.20;74.60;;;6.71;100.00;96623.59;4933144;29;20485;-52
2024/02/19 06:19:50;;;;;;;8.13;4.88;;;11.20;74.60;;;6.70;100.00;96625.41;4934162;29;20027;-53
2024/02/19 06:22:16;;;;;;;10.88;5.05;;;11.20;74.60;;;6.76;100.00;96628.25;4932450;29;20394;-52
2024/02/19 06:24:46;;;;;;;6.55;4.50;;;11.20;74.60;;;6.73;100.00;96629.47;4935549;28;20031;-50
2024/02/19 06:27:12;;;;;;;5.95;4.18;;;11.30;74.70;;;6.75;100.00;96642.50;4933367;29;20038;-50
2024/02/19 06:29:38;;;;;;;6.60;4.15;;;11.30;74.60;;;6.72;100.00;96633.16;4943403;28;20023;-51
2024/02/19 06:32:04;;;;;;;5.82;4.20;;;11.20;74.50;;;6.71;100.00;96636.84;4933096;29;20030;-57
2024/02/19 06:34:31;;;;;;;5.68;3.90;;;11.30;74.60;;;6.72;100.00;96638.44;4934098;29;20106;-57
2024/02/19 06:36:57;;;;;;;8.30;3.95;;;11.20;74.50;;;6.75;100.00;96647.81;4931724;29;20031;-52
2024/02/19 06:39:23;;;;;;;5.93;4.10;;;11.30;74.60;;;6.78;100.00;96652.69;4933962;29;20030;-55
2024/02/19 06:41:48;;;;;;;7.05;4.30;;;11.30;74.60;;;6.78;100.00;96653.50;4929001;29;20383;-52
2024/02/19 06:44:14;;;;;;;16.20;4.70;;;11.30;74.50;;;6.75;100.00;96656.56;4931256;29;20019;-56
2024/02/19 06:46:40;;;;;;;6.00;4.00;;;11.30;74.50;;;6.80;100.00;96656.75;4930666;29;20027;-54
2024/02/19 06:49:06;;;;;;;9.25;4.30;;;11.30;74.60;;;6.82;100.00;96656.50;4932412;29;20034;-53
2024/02/19 06:51:32;;;;;;;11.55;5.00;;;11.40;74.60;;;6.86;100.00;96668.28;4931558;28;20059;-54
2024/02/19 06:53:58;;;;;;;7.55;4.38;;;11.30;74.50;;;6.88;100.00;96666.25;4932935;28;20553;-56
2024/02/19 06:56:24;;;;;;;7.18;4.88;;;11.40;74.50;;;6.87;100.00;96662.78;4933192;28;20388;-52
2024/02/19 06:58:49;;;;;;;7.25;4.55;;;11.40;74.50;;;6.90;100.00;96664.22;4933262;29;20030;-56
2024/02/19 07:01:16;;;;;;;8.05;4.68;;;11.40;74.50;;;6.90;100.00;96672.16;4931683;29;20453;-51
2024/02/19 07:03:45;;;;;;;11.88;5.15;;;11.40;74.50;;;6.92;100.00;96670.09;4932887;29;20027;-51
2024/02/19 07:06:10;;;;;;;7.05;4.43;;;11.50;74.50;;;6.95;100.00;96675.75;4932189;29;20034;-55
2024/02/19 07:08:36;;;;;;;8.52;4.90;;;11.50;74.50;;;6.93;100.00;96680.47;4932982;29;20398;-50
2024/02/19 07:11:02;;;;;;;6.90;4.85;;;11.50;74.40;;;6.98;100.00;96673.72;4931556;29;20391;-52
2024/02/19 07:13:28;;;;;;;6.32;4.55;;;11.50;74.40;;;6.98;100.00;96682.47;4932637;29;20493;-55
2024/02/19 07:15:54;;;;;;;7.32;4.68;;;11.60;74.40;;;6.94;100.00;96684.75;4933262;29;20589;-50
2024/02/19 07:18:20;;;;;;;7.88;4.38;;;11.50;74.40;;;6.93;100.00;96701.69;4931757;29;20050;-51
2024/02/19 07:20:46;;;;;;;5.95;4.30;;;11.60;74.40;;;6.98;100.00;96702.84;4933245;29;20019;-57
2024/02/19 07:23:11;;;;;;;8.60;5.13;;;11.60;74.30;;;7.01;100.00;96708.53;4931627;28;20414;-56
2024/02/19 07:25:38;;;;;;;7.68;4.05;;;11.60;74.30;;;6.97;100.00;96709.19;4933341;29;20037;-54
2024/02/19 07:28:04;;;;;;;7.45;4.60;;;11.60;74.30;;;6.94;100.00;96715.72;4940746;28;20105;-55
2024/02/19 07:30:30;;;;;;;5.82;4.13;;;11.60;74.30;;;6.99;100.00;96712.41;4931237;28;20133;-56
2024/02/19 07:32:56;;;;;;;6.63;4.45;;;11.60;74.30;;;7.03;100.00;96719.75;4931943;29;20442;-55
2024/02/19 07:35:22;;;;;;;7.32;4.32;;;11.60;74.20;;;7.06;100.00;96716.66;4931535;29;20066;-56
2024/02/19 07:37:48;;;;;;;6.38;4.43;;;11.60;74.20;;;7.04;100.00;96721.34;4932656;29;20150;-53
2024/02/19 07:40:14;;;;;;;5.38;4.10;;;11.70;74.30;;;7.09;100.00;96726.84;4932693;29;20089;-58
2024/02/19 07:42:39;;;;;;;5.43;4.18;;;11.70;74.20;;;7.11;100.00;96722.16;4930766;28;20043;-56
2024/02/19 07:45:06;;;;;;;8.35;4.45;;;11.80;74.30;;;7.12;100.00;96718.47;4932636;29;20019;-53
2024/02/19 07:47:33;;;;;;;6.70;4.05;;;11.80;74.30;;;7.13;100.00;96728.03;4931370;29;20098;-52
2024/02/19 07:49:58;;;;;;;6.10;4.20;;;11.90;74.20;;;7.12;100.00;96730.91;4932542;29;20030;-55
2024/02/19 07:52:24;;;;;;;6.63;4.57;;;11.90;74.10;;;7.20;100.00;96730.63;4931037;29;20085;-51
2024/02/19 07:54:51;;;;;;;17.15;4.45;;;11.90;74.90;;;7.23;100.00;96735.50;4931728;29;20030;-50
2024/02/19 07:57:16;;;;;;;5.40;3.95;;;11.90;74.00;;;7.24;100.00;96734.50;4931369;29;20054;-51
2024/02/19 07:59:42;;;;;;;7.18;4.03;;;12.00;74.10;;;7.30;100.00;96735.44;4931344;29;20049;-52
2024/02/19 08:02:09;;;;;;;7.03;4.53;;;12.00;74.10;;;7.32;100.00;96739.50;4929150;28;20450;-54
2024/02/19 08:04:35;;;;;;;5.60;4.05;;;12.10;74.10;;;7.34;100.00;96742.75;4932896;29;20023;-55
2024/02/19 08:07:01;;;;;;;8.02;4.18;;;12.10;74.00;;;7.35;100.00;96740.91;4931199;29;20081;-54
2024/02/19 08:09:26;;;;;;;5.40;3.88;;;12.10;73.90;;;7.42;100.00;96737.19;4932565;29;20106;-51
2024/02/19 08:11:52;;;;;;;8.40;4.43;;;12.20;73.90;;;7.51;100.00;96739.56;4924973;29;20031;-54
2024/02/19 08:14:19;;;;;;;6.65;4.25;;;12.30;73.90;;;7.58;100.00;96741.16;4932175;29;20113;-55
2024/02/19 08:16:49;;;;;;;8.38;4.70;;;12.40;73.90;;;7.61;100.00;96745.19;4925262;29;20250;-52
2024/02/19 08:19:17;;;;;;;5.63;3.92;;;12.50;73.90;;;7.71;100.00;96748.19;4931023;29;20019;-53
2024/02/19 08:21:43;;;;;;;6.68;4.20;;;12.60;73.80;;;7.83;100.00;96748.25;4931735;29;20114;-54
2024/02/19 08:24:09;;;;;;;5.90;3.80;;;12.80;73.80;;;7.89;100.00;96753.50;4930121;29;20118;-52
2024/02/19 08:26:35;;;;;;;5.65;3.75;;;12.90;73.60;;;7.95;100.00;96749.16;4930234;29;20038;-54
2024/02/19 08:29:01;;;;;;;7.80;4.43;;;13.00;73.40;;;8.09;100.00;96752.50;4930903;29;20102;-56
2024/02/19 08:31:27;;;;;;;5.85;3.50;;;13.10;73.40;;;8.10;100.00;96760.25;4948317;29;20030;-56
2024/02/19 08:33:55;;;;;;;6.20;3.30;;;13.20;73.30;;;8.24;100.00;96762.75;4951344;29;20026;-56
2024/02/19 08:36:22;;;;;;;5.28;3.10;;;13.20;73.20;;;8.30;100.00;96760.03;4962550;28;20037;-56
2024/02/19 08:38:53;;;;;;;4.32;3.08;;;13.30;73.20;;;8.27;100.00;96764.97;4950966;28;20037;-54
2024/02/19 08:41:19;;;;;;;3.50;3.00;;;13.30;73.10;;;8.21;100.00;96766.69;4946839;28;20101;-56
2024/02/19 08:43:45;;;;;;;5.13;3.15;;;13.30;72.80;;;8.24;100.00;96766.25;4942629;29;20052;-52
2024/02/19 08:46:13;;;;;;;4.72;2.95;;;13.40;73.50;;;8.31;100.00;96766.97;4938216;28;20038;-53
2024/02/19 08:48:38;;;;;;;4.93;2.90;;;13.40;72.60;;;8.37;100.00;96770.59;4946642;28;20058;-55
2024/02/19 08:51:05;;;;;;;5.60;3.22;;;13.50;72.40;;;8.47;100.00;96770.09;4947850;28;20122;-55
2024/02/19 08:53:30;;;;;;;3.95;2.97;;;13.60;72.30;;;8.56;100.00;96774.88;4940083;28;20086;-54
2024/02/19 08:55:56;;;;;;;3.65;2.92;;;13.70;72.10;;;8.63;100.00;96772.16;4938378;28;20031;-57
2024/02/19 08:58:22;;;;;;;5.75;3.08;;;13.80;72.00;;;8.59;100.00;96776.28;4942456;28;20077;-53
2024/02/19 09:00:51;;;;;;;3.35;2.58;;;14.00;71.70;;;8.76;100.00;96773.84;4944373;28;20030;-55
2024/02/19 09:03:17;;;;;;;3.47;2.55;;;14.30;71.40;;;9.09;100.00;96777.88;4943518;28;20014;-55
2024/02/19 09:05:44;;;;;;;4.18;2.75;;;14.60;71.20;;;9.45;100.00;96782.28;4949877;28;20076;-55
2024/02/19 09:08:10;;;;;;;4.00;2.22;;;15.00;71.10;;;9.62;100.00;96783.25;4945221;28;20081;-54
2024/02/19 09:10:37;;;;;;;2.72;2.03;;;15.20;70.90;;;9.67;100.00;96791.34;4948669;28;20029;-57
2024/02/19 09:13:06;;;;;;;6.07;3.58;;;15.20;70.40;;;9.76;100.00;96791.81;4940712;28;20023;-55
2024/02/19 09:15:32;;;;;;;3.15;2.50;;;15.20;70.30;;;9.77;100.00;96788.13;4942403;28;20019;-53
2024/02/19 09:17:58;;;;;;;2.72;2.20;;;15.20;70.10;;;9.71;100.00;96797.84;4933961;28;20027;-56
2024/02/19 09:20:24;;;;;;;2.85;2.20;;;15.10;69.70;;;9.66;100.00;96802.22;4940907;28;20019;-56
2024/02/19 09:22:50;;;;;;;2.30;2.10;;;15.00;69.60;;;9.68;100.00;96797.47;4934621;28;20037;-55
2024/02/19 09:25:16;;;;;;;3.50;2.80;;;15.00;69.50;;;9.66;100.00;96797.72;4941777;28;20085;-54
2024/02/19 09:27:42;;;;;;;4.22;2.88;;;15.00;69.30;;;9.70;100.00;96804.19;4945837;28;20782;-56
2024/02/19 09:30:09;;;;;;;4.05;3.00;;;15.10;69.20;;;9.65;100.00;96795.25;4939237;28;20027;-57
2024/02/19 09:32:35;;;;;;;3.25;2.63;;;15.30;69.00;;;9.82;100.00;96793.56;4942989;28;20058;-54
2024/02/19 09:35:05;;;;;;;2.80;2.50;;;15.40;68.70;;;9.86;100.00;96799.25;4943373;28;20061;-57
2024/02/19 09:37:31;;;;;;;3.47;2.40;;;15.60;68.40;;;9.80;100.00;96792.16;4943544;28;20560;-56
2024/02/19 09:39:58;;;;;;;3.08;2.65;;;15.70;68.70;;;9.82;100.00;96790.09;4943025;28;20516;-54
2024/02/19 09:42:29;;;;;;;4.03;2.55;;;15.70;67.30;;;9.88;100.00;96791.84;4942700;28;20046;-51
2024/02/19 09:44:55;;;;;;;4.97;2.22;;;15.70;67.10;;;9.85;100.00;96798.44;4956660;28;20031;-57
2024/02/19 09:47:23;;;;;;;3.25;2.22;;;15.60;66.70;;;9.92;100.00;96787.66;4939641;28;20378;-53
2024/02/19 09:49:50;;;;;;;2.90;1.95;;;15.60;66.60;;;9.90;100.00;96797.72;4963050;28;20023;-57
2024/02/19 09:52:25;;;;;;;2.95;2.05;;;15.50;66.50;;;10.31;100.00;96796.84;4930738;28;20050;-56
2024/02/19 09:54:52;;;;;;;3.13;2.13;;;15.90;66.80;;;10.69;100.00;96787.53;4943924;28;20037;-55
2024/02/19 09:57:22;;;;;;;2.50;2.28;;;16.40;66.60;;;10.88;100.00;96794.31;4939202;28;20572;-56
2024/02/19 09:59:51;;;;;;;2.03;1.70;;;16.80;65.80;;;11.16;100.00;96798.03;4950329;28;20018;-59
2024/02/19 10:02:19;;;;;;;4.10;2.03;;;17.00;65.30;;;11.33;99.15;96788.19;4943516;28;20031;-57
2024/02/19 10:04:47;;;;;;;4.45;2.08;;;17.10;65.10;;;11.08;94.73;96791.22;4945771;28;20560;-57
2024/02/19 10:07:20;;;;;;;2.05;1.80;;;17.10;64.10;;;10.99;93.08;96797.97;4933529;28;20038;-55
2024/02/19 10:09:49;;;;;;;2.22;1.85;;;17.20;63.10;;;11.19;95.74;96797.56;4939483;28;20018;-58
2024/02/19 10:12:17;;;;;;;3.80;1.90;;;17.50;62.60;;;11.53;95.74;96794.94;4939646;28;20031;-58
2024/02/19 10:14:43;;;;;;;3.95;2.28;;;17.80;62.10;;;11.88;93.88;96793.97;4942940;28;20026;-57